NOZ3PM GCTS-ENGM
Flight info
| Callsign | NOZ3PM |
|---|---|
| Flight time | N/A |
| Altitude | 37000 |
| Route | BIMBO DCT LIDRO DCT MANOX/M076F340 T13 NILAV/M076F350 T13 OMOKO DCT GUNSO/N0434F350 DCT LUNIG DCT ROTEV/N0440F370 DCT BLACA DCT TRN DCT GRICE DCT FINDO DCT DENOG DCT BEREP DCT STD DCT AGEKU DCT ADOPI |
| Aircraft | B738/M-SDE2E3FGHIRWXY/LB1 |
Departure
| Time | N/A |
|---|---|
| Airport | Tenerife Sur Airport (GCTS) |
Arrival
| Time | 2026-05-07 19:15 |
|---|---|
| Airport | Oslo-Gardermoen International Airport (ENGM) |
| Time | Latitude | Longitude | Altitude | Speed | Heading |
|---|---|---|---|---|---|
| 2026-05-07 18:30 | 59.27788 | 2.83246 | 37080 ft | 480 kts | 67° |
| 2026-05-07 18:31 | 59.29088 | 2.89287 | 37084 ft | 480 kts | 67° |
| 2026-05-07 18:31 | 59.31672 | 3.01346 | 37085 ft | 480 kts | 67° |
| 2026-05-07 18:32 | 59.34243 | 3.13420 | 37089 ft | 480 kts | 67° |
| 2026-05-07 18:32 | 59.36803 | 3.25509 | 37093 ft | 480 kts | 67° |
| 2026-05-07 18:33 | 59.39348 | 3.37597 | 37097 ft | 480 kts | 68° |
| 2026-05-07 18:33 | 59.41882 | 3.49707 | 37098 ft | 480 kts | 68° |
| 2026-05-07 18:34 | 59.44405 | 3.61837 | 37100 ft | 479 kts | 68° |
| 2026-05-07 18:34 | 59.46917 | 3.73984 | 37100 ft | 479 kts | 68° |
| 2026-05-07 18:35 | 59.49415 | 3.86135 | 37102 ft | 479 kts | 68° |
| 2026-05-07 18:35 | 59.51887 | 3.98235 | 37103 ft | 479 kts | 68° |
| 2026-05-07 18:36 | 59.54363 | 4.10425 | 37105 ft | 479 kts | 68° |
| 2026-05-07 18:36 | 59.56827 | 4.22635 | 37106 ft | 479 kts | 68° |
| 2026-05-07 18:37 | 59.59283 | 4.34871 | 37104 ft | 479 kts | 68° |
| 2026-05-07 18:37 | 59.61713 | 4.47056 | 37114 ft | 480 kts | 68° |
| 2026-05-07 18:38 | 59.64157 | 4.59389 | 37109 ft | 480 kts | 68° |
| 2026-05-07 18:38 | 59.66579 | 4.71686 | 37107 ft | 480 kts | 68° |
| 2026-05-07 18:39 | 59.68986 | 4.83980 | 37109 ft | 480 kts | 68° |
| 2026-05-07 18:39 | 59.71388 | 4.96330 | 37109 ft | 480 kts | 68° |
| 2026-05-07 18:40 | 59.73782 | 5.08710 | 37104 ft | 480 kts | 68° |
| 2026-05-07 18:40 | 59.76161 | 5.21092 | 37103 ft | 481 kts | 69° |
| 2026-05-07 18:41 | 59.78529 | 5.33490 | 37104 ft | 481 kts | 69° |
| 2026-05-07 18:41 | 59.80616 | 5.46098 | 37109 ft | 481 kts | 73° |
| 2026-05-07 18:42 | 59.82494 | 5.58888 | 37099 ft | 481 kts | 73° |
| 2026-05-07 18:42 | 59.84362 | 5.71657 | 37097 ft | 481 kts | 73° |
| 2026-05-07 18:43 | 59.86256 | 5.84446 | 37100 ft | 482 kts | 73° |
| 2026-05-07 18:43 | 59.88121 | 5.97020 | 37094 ft | 482 kts | 73° |
| 2026-05-07 18:44 | 59.90013 | 6.09860 | 37086 ft | 483 kts | 73° |
| 2026-05-07 18:44 | 59.91888 | 6.22689 | 37085 ft | 483 kts | 73° |
| 2026-05-07 18:45 | 59.93741 | 6.35483 | 37084 ft | 483 kts | 73° |
| 2026-05-07 18:45 | 59.95582 | 6.48285 | 36925 ft | 486 kts | 73° |
| 2026-05-07 18:45 | 59.96511 | 6.54788 | 36473 ft | 486 kts | 73° |
| 2026-05-07 18:46 | 59.97439 | 6.61310 | 36097 ft | 480 kts | 73° |
| 2026-05-07 18:46 | 59.98334 | 6.67630 | 35679 ft | 478 kts | 73° |
| 2026-05-07 18:46 | 59.99245 | 6.74080 | 35249 ft | 475 kts | 73° |
| 2026-05-07 18:46 | 60.00136 | 6.80417 | 34869 ft | 472 kts | 73° |
| 2026-05-07 18:47 | 60.01005 | 6.86622 | 34457 ft | 470 kts | 73° |
| 2026-05-07 18:47 | 60.01894 | 6.92995 | 34023 ft | 468 kts | 72° |
| 2026-05-07 18:47 | 60.02752 | 6.99166 | 33561 ft | 466 kts | 72° |
| 2026-05-07 18:47 | 60.03614 | 7.05393 | 33148 ft | 463 kts | 72° |
| 2026-05-07 18:48 | 60.04467 | 7.11574 | 32753 ft | 459 kts | 72° |
| 2026-05-07 18:48 | 60.05310 | 7.17714 | 32352 ft | 456 kts | 72° |
| 2026-05-07 18:48 | 60.06121 | 7.23827 | 31969 ft | 454 kts | 77° |
| 2026-05-07 18:48 | 60.06402 | 7.30119 | 31567 ft | 453 kts | 90° |
| 2026-05-07 18:49 | 60.06337 | 7.36402 | 31207 ft | 450 kts | 92° |
| 2026-05-07 18:49 | 60.06197 | 7.42640 | 30824 ft | 448 kts | 93° |
| 2026-05-07 18:49 | 60.06035 | 7.48854 | 30453 ft | 445 kts | 93° |
| 2026-05-07 18:49 | 60.05865 | 7.55029 | 30078 ft | 443 kts | 93° |
| 2026-05-07 18:50 | 60.05690 | 7.61144 | 29683 ft | 439 kts | 93° |
| 2026-05-07 18:50 | 60.05510 | 7.67220 | 29320 ft | 435 kts | 93° |
| 2026-05-07 18:50 | 60.05329 | 7.73230 | 28967 ft | 430 kts | 93° |
| 2026-05-07 18:50 | 60.05146 | 7.79162 | 28639 ft | 426 kts | 93° |
| 2026-05-07 18:51 | 60.05022 | 7.83150 | 28408 ft | 423 kts | 93° |
| 2026-05-07 18:51 | 60.04837 | 7.88981 | 28096 ft | 418 kts | 93° |
| 2026-05-07 18:51 | 60.04653 | 7.94765 | 27796 ft | 413 kts | 93° |
| 2026-05-07 18:51 | 60.04471 | 8.00377 | 27530 ft | 408 kts | 94° |
| 2026-05-07 18:52 | 60.04285 | 8.06081 | 27281 ft | 402 kts | 94° |
| 2026-05-07 18:52 | 60.04103 | 8.11618 | 27041 ft | 397 kts | 93° |
| 2026-05-07 18:52 | 60.04189 | 8.17153 | 26427 ft | 402 kts | 77° |
| 2026-05-07 18:52 | 60.04912 | 8.22504 | 26055 ft | 398 kts | 69° |
| 2026-05-07 18:53 | 60.05789 | 8.27787 | 25663 ft | 401 kts | 68° |
| 2026-05-07 18:53 | 60.06665 | 8.33024 | 25296 ft | 402 kts | 68° |
| 2026-05-07 18:53 | 60.07551 | 8.38403 | 24906 ft | 401 kts | 69° |
| 2026-05-07 18:53 | 60.08407 | 8.43700 | 24531 ft | 399 kts | 69° |
| 2026-05-07 18:54 | 60.09247 | 8.48989 | 24147 ft | 398 kts | 69° |
| 2026-05-07 18:54 | 60.10076 | 8.54273 | 23769 ft | 397 kts | 70° |
| 2026-05-07 18:54 | 60.10884 | 8.59471 | 23339 ft | 395 kts | 70° |
| 2026-05-07 18:54 | 60.11696 | 8.64725 | 22930 ft | 393 kts | 70° |
| 2026-05-07 18:55 | 60.12498 | 8.69941 | 22541 ft | 390 kts | 70° |
| 2026-05-07 18:55 | 60.13302 | 8.75188 | 22167 ft | 387 kts | 70° |
| 2026-05-07 18:55 | 60.14078 | 8.80267 | 21795 ft | 385 kts | 70° |
| 2026-05-07 18:55 | 60.14857 | 8.85386 | 21425 ft | 382 kts | 71° |
| 2026-05-07 18:56 | 60.15630 | 8.90471 | 21061 ft | 379 kts | 71° |
| 2026-05-07 18:56 | 60.16394 | 8.95517 | 20702 ft | 377 kts | 71° |
| 2026-05-07 18:56 | 60.17152 | 9.00532 | 20338 ft | 374 kts | 71° |
| 2026-05-07 18:56 | 60.17901 | 9.05507 | 20001 ft | 371 kts | 71° |
| 2026-05-07 18:57 | 60.18646 | 9.10469 | 19638 ft | 370 kts | 71° |
| 2026-05-07 18:57 | 60.19386 | 9.15408 | 19295 ft | 368 kts | 71° |
| 2026-05-07 18:57 | 60.20119 | 9.20314 | 18934 ft | 366 kts | 72° |
| 2026-05-07 18:57 | 60.20847 | 9.25205 | 18588 ft | 364 kts | 72° |
| 2026-05-07 18:58 | 60.21570 | 9.30074 | 18223 ft | 363 kts | 72° |
| 2026-05-07 18:58 | 60.22288 | 9.34927 | 17832 ft | 361 kts | 72° |
| 2026-05-07 18:58 | 60.22998 | 9.39741 | 17459 ft | 358 kts | 72° |
| 2026-05-07 18:58 | 60.23701 | 9.44523 | 17105 ft | 355 kts | 72° |
| 2026-05-07 18:59 | 60.24398 | 9.49275 | 16789 ft | 351 kts | 72° |
| 2026-05-07 18:59 | 60.25076 | 9.53914 | 16503 ft | 343 kts | 72° |
| 2026-05-07 18:59 | 60.25745 | 9.58496 | 16242 ft | 338 kts | 72° |
| 2026-05-07 18:59 | 60.26400 | 9.63004 | 15970 ft | 334 kts | 72° |
| 2026-05-07 19:00 | 60.27050 | 9.67478 | 15723 ft | 333 kts | 72° |
| 2026-05-07 19:00 | 60.27697 | 9.71945 | 15478 ft | 332 kts | 72° |
| 2026-05-07 19:00 | 60.28338 | 9.76389 | 15229 ft | 330 kts | 72° |
| 2026-05-07 19:00 | 60.28973 | 9.80803 | 14984 ft | 326 kts | 72° |
| 2026-05-07 19:01 | 60.29601 | 9.85176 | 14661 ft | 325 kts | 72° |
| 2026-05-07 19:01 | 60.30227 | 9.89545 | 14333 ft | 324 kts | 72° |
| 2026-05-07 19:01 | 60.30843 | 9.93863 | 14026 ft | 323 kts | 72° |
| 2026-05-07 19:01 | 60.31463 | 9.98213 | 13646 ft | 323 kts | 73° |
| 2026-05-07 19:02 | 60.32080 | 10.02556 | 13296 ft | 322 kts | 73° |
| 2026-05-07 19:02 | 60.32694 | 10.06892 | 12945 ft | 320 kts | 73° |
| 2026-05-07 19:02 | 60.33303 | 10.11201 | 12614 ft | 319 kts | 73° |
| 2026-05-07 19:02 | 60.33908 | 10.15495 | 12272 ft | 317 kts | 73° |
| 2026-05-07 19:03 | 60.34510 | 10.19778 | 11929 ft | 316 kts | 73° |
| 2026-05-07 19:03 | 60.35106 | 10.24031 | 11606 ft | 313 kts | 73° |
| 2026-05-07 19:03 | 60.35695 | 10.28244 | 11278 ft | 312 kts | 73° |
| 2026-05-07 19:03 | 60.36274 | 10.32398 | 10958 ft | 310 kts | 73° |
| 2026-05-07 19:04 | 60.36854 | 10.36571 | 10619 ft | 308 kts | 73° |
| 2026-05-07 19:04 | 60.37439 | 10.40794 | 10308 ft | 305 kts | 73° |
| 2026-05-07 19:04 | 60.37996 | 10.44816 | 10192 ft | 297 kts | 74° |
| 2026-05-07 19:04 | 60.38542 | 10.48779 | 10101 ft | 288 kts | 74° |
| 2026-05-07 19:05 | 60.38876 | 10.51206 | 10092 ft | 283 kts | 74° |
| 2026-05-07 19:05 | 60.39351 | 10.54665 | 10042 ft | 278 kts | 74° |
| 2026-05-07 19:05 | 60.39872 | 10.58462 | 9598 ft | 283 kts | 74° |
| 2026-05-07 19:05 | 60.40396 | 10.62293 | 9310 ft | 282 kts | 74° |
| 2026-05-07 19:06 | 60.40916 | 10.66100 | 9061 ft | 279 kts | 74° |
| 2026-05-07 19:06 | 60.41940 | 10.73632 | 8496 ft | 276 kts | 74° |
| 2026-05-07 19:06 | 60.42446 | 10.77360 | 8237 ft | 274 kts | 74° |
| 2026-05-07 19:07 | 60.42948 | 10.81077 | 7965 ft | 272 kts | 74° |
| 2026-05-07 19:07 | 60.43445 | 10.84764 | 7684 ft | 271 kts | 75° |
| 2026-05-07 19:07 | 60.43938 | 10.88427 | 7417 ft | 269 kts | 75° |
| 2026-05-07 19:07 | 60.44428 | 10.92064 | 7159 ft | 267 kts | 75° |
| 2026-05-07 19:08 | 60.44913 | 10.95686 | 6902 ft | 266 kts | 75° |
| 2026-05-07 19:08 | 60.45394 | 10.99287 | 6663 ft | 263 kts | 75° |
| 2026-05-07 19:08 | 60.45864 | 11.02816 | 6550 ft | 256 kts | 75° |
| 2026-05-07 19:08 | 60.46267 | 11.06300 | 6248 ft | 254 kts | 86° |
| 2026-05-07 19:09 | 60.45934 | 11.09762 | 5759 ft | 252 kts | 118° |
| 2026-05-07 19:09 | 60.44945 | 11.12642 | 5365 ft | 248 kts | 130° |
| 2026-05-07 19:09 | 60.43815 | 11.15270 | 4980 ft | 245 kts | 132° |
| 2026-05-07 19:09 | 60.42695 | 11.17842 | 4599 ft | 242 kts | 131° |
| 2026-05-07 19:10 | 60.41605 | 11.20375 | 4333 ft | 235 kts | 131° |
| 2026-05-07 19:10 | 60.40359 | 11.22306 | 4154 ft | 221 kts | 163° |
| 2026-05-07 19:10 | 60.38848 | 11.22368 | 4072 ft | 220 kts | 189° |
| 2026-05-07 19:10 | 60.37340 | 11.21879 | 4037 ft | 219 kts | 189° |
| 2026-05-07 19:11 | 60.35846 | 11.21267 | 3925 ft | 219 kts | 193° |
| 2026-05-07 19:11 | 60.34376 | 11.20470 | 3655 ft | 223 kts | 195° |
| 2026-05-07 19:11 | 60.32871 | 11.19597 | 3358 ft | 220 kts | 195° |
| 2026-05-07 19:11 | 60.31432 | 11.18763 | 3060 ft | 216 kts | 195° |
| 2026-05-07 19:12 | 60.30015 | 11.17946 | 2757 ft | 207 kts | 195° |
| 2026-05-07 19:12 | 60.28672 | 11.17172 | 2493 ft | 194 kts | 195° |
| 2026-05-07 19:12 | 60.27423 | 11.16453 | 2239 ft | 180 kts | 195° |
| 2026-05-07 19:12 | 60.26259 | 11.15782 | 2004 ft | 169 kts | 195° |
| 2026-05-07 19:13 | 60.25161 | 11.15150 | 1767 ft | 159 kts | 195° |
| 2026-05-07 19:13 | 60.24136 | 11.14559 | 1592 ft | 145 kts | 195° |
| 2026-05-07 19:13 | 60.23201 | 11.14020 | 1357 ft | 138 kts | 195° |
| 2026-05-07 19:13 | 60.22285 | 11.13493 | 1171 ft | 138 kts | 194° |
| 2026-05-07 19:14 | 60.21360 | 11.12956 | 1000 ft | 140 kts | 194° |
| 2026-05-07 19:14 | 60.20433 | 11.12425 | 795 ft | 137 kts | 194° |
| 2026-05-07 19:14 | 60.19546 | 11.11909 | 680 ft | 123 kts | 193° |
| 2026-05-07 19:14 | 60.18818 | 11.11495 | 683 ft | 93 kts | 196° |
| 2026-05-07 19:15 | 60.18514 | 11.11275 | 681 ft | 16 kts | 212° |
| 2026-05-07 19:15 | 60.18490 | 11.11241 | 681 ft | 9 kts | 216° |
| 2026-05-07 19:15 | 60.18437 | 11.11068 | 681 ft | 15 kts | 268° |
| 2026-05-07 19:15 | 60.18466 | 11.10851 | 680 ft | 15 kts | 285° |
| 2026-05-07 19:16 | 60.18523 | 11.10767 | 681 ft | 11 kts | 8° |
| 2026-05-07 19:16 | 60.18609 | 11.10813 | 679 ft | 14 kts | 16° |
| 2026-05-07 19:16 | 60.18716 | 11.10875 | 678 ft | 19 kts | 16° |
| 2026-05-07 19:16 | 60.18876 | 11.10967 | 682 ft | 28 kts | 16° |
| 2026-05-07 19:17 | 60.19062 | 11.11075 | 682 ft | 16 kts | 16° |
| 2026-05-07 19:17 | 60.19150 | 11.11106 | 678 ft | 10 kts | 344° |
| 2026-05-07 19:17 | 60.19184 | 11.10995 | 682 ft | 11 kts | 286° |
| 2026-05-07 19:17 | 60.19207 | 11.10830 | 681 ft | 14 kts | 286° |
| 2026-05-07 19:18 | 60.19234 | 11.10639 | 677 ft | 13 kts | 286° |
| 2026-05-07 19:18 | 60.19250 | 11.10526 | 677 ft | 0 kts | 286° |
| 2026-05-07 19:18 | 60.19255 | 11.10504 | 681 ft | 4 kts | 296° |
| 2026-05-07 19:18 | 60.19277 | 11.10480 | 679 ft | 2 kts | 358° |
| 2026-05-07 19:19 | 60.19289 | 11.10484 | 683 ft | 2 kts | 8° |
| 2026-05-07 19:19 | 60.19305 | 11.10491 | 683 ft | 3 kts | 15° |
| 2026-05-07 19:19 | 60.19311 | 11.10494 | 684 ft | 0 kts | 14° |